Timeline UpdatesTrip UpdatesNews PostsPvt Posts♥♥Travel TipsAdmin PostsConv PostsFollowed PostsChat RequestsBlog PostsPNR Posts

Disclaimer
Search
 
 
Fri Dec 19, 2014 19:11:33 ISTHomeTrainsΣChainsAtlasPNRForumGalleryNewsFAQTripsMembersLoginFeedback
No Recent News for this Train
Other Trains in the News **new
Latest...
.
Sat Jan 26, 2013 (03:08PM)
⇐ Return Journey: Train# 59440

59439/Mumbai Central-Ahmedabad Passenger

Time-Table HAS CHANGED.
Sep 02 2014 (12:22AM)
Change Departure Station:
Change Arrival Station:
Post a Train Travel TipPost a Train Travel Tip **new
Post a Comment/Question/Picture/VideoPost a Comment/Question/Picture/Video
Pantry/Catering
✕ NO Pantry Car
✕ NO Catering
RSA - Rake Sharing
59439 and 59442 share rakes.
Rake/Coach Composition
LOCO-SLR-GEN-GEN-GEN-S3-S2-S1-LD-GEN-GEN-GEN-GEN-GEN-GEN-GEN-SLR
Loco
BL WCAM-1/BRC WAG-5A
News    PNR    Forum    Time-Table    Availability    Fare Chart    Map    Arr/Dep History    Trips    Gallery    ΣChains    X/O    Timeline    
Travel Time: 10h 35m    46 halts    Distance: 298 km    Avg Speed: 28 km/hr
Type: Passenger
Zone: WR/Western
Departs @ 18:00 (Avg 3m late)
Platform# 2
SMTWTFS
Valsad/BL 
Arrives @ 04:35 +1 night (Avg 2m late)
Platform# 4
SMTWTFS
Ahmedabad Junction/ADI 

46 halts. 60 intermediate Stations between Valsad and Ahmedabad Junction

Show ALL intermediate Stations  Show Old Time-Table

#TrkCodeStation NameX/OArrivesAvgDepartsAvgHaltPFDay#KmSpeedElevZoneAddress
1/==/BCTMumbai Central (9)  -12:15+141-194.4363mWRMumbai 400008, Maharashtra
2/==/DDRMumbai Dadar Western (6)X  12:28 12:25+412:30+52 5m51-188.5306mWRMumbai, Maharashtra
3/==/ADHMumbai Andheri (9)  12:52+312:54+42m81-177.34412mWRMumbai, Maharashtra
4/==/BVIMumbai Borivali (8)X  13:18 13:11+413:20+72 9m61-164.73519mWRMumbai - 400092, Maharashtra
5/==/BSRVasai Road (7)  13:50+113:52+22m41-147.3467mWRVasai 401202, Maharashtra
6/==/VRVirar (8)X  14:03+214:05+32m31-138.9436mWRDist. Palghar, Maharashtra
7/==/VTNVaitarna (2)  14:16 14:17+214:18+32 1m11-130.4583mWRDist. Palghar, Maharashtra
8/==/SAHSaphale (2)X  14:25 14:26+514:27+52 1m11-122.6648mWRDist. Palghar, Maharashtra
9/==/KLVKelve Road (3)  14:32 14:33+514:34+62 1m21-116.27210mWRDist. Palghar, Maharashtra
10/==/PLGPalghar (3)X  14:41+614:43+62m11-107.75619mWRPalghar, Maharashtra
11/==/BORBoisar (3)XO  14:55+714:57+202m11-96.51817mWRBoisar Tel.no-02525-266626, Maharashtra
12/==/VGNVangaon (3)XO  15:28 15:29+415:30+72 1m--1-87.15311mWRDist. Palghar, Maharashtra
13/==/DRDDahanu Road (5)X  15:44+415:46+52m11-74.86112mWRDahanu, Maharashtra
14/==/GVDGholvad (4)  15:56 15:57+515:58+62 1m--1-63.66114mWRGholvad, Maharashtra
15/==/UBRUmbargam Road (3)XO  16:07+616:09+92m11-54.52730mWRUmbergaon, Gujarat
16/==/SJNSanjan (3)X  16:20 16:21+516:22+82 1m--1-49.15822mWRSanjan, Gujarat
17/==/BLDBhilad (3)  16:33 16:34+716:35+112 1m--1-37.54833mWRBhilad, Gujarat
18/==/KEBKarambeli (2)O  16:40 16:41-16:42-2 1m--1-32.72429mWRNational Highway 8, Gujarat
19/==/VAPIVapi (3)X  16:58+217:00+42m11-26.25027mWRVapi, Gujarat
20/==/BAGDBagwada (2)XO  17:08-17:09-1m--1-19.53522mWRNH8, Gujarat
21/==/UVDUdvada (3)X  17:13 17:14+417:15+52 1m--1-16.76018mWRUdvada, Gujarat
22/==/PADPardi (3)X  17:20 17:21+517:22+62 1m--1-10.74819mWRValsad, Gujarat
23/==/ATULAtul (3)O  17:26 17:27+617:28+62 1m--1-6.72922mWRValsad, Gujarat
24/==/BLValsad (3)»XO  17:42+118:00+318m210.05915mWRValsad, Gujarat
25/==/DGIDungri (3)  18:08 18:09+518:10+62 1m118.95120mWRNH 8, Gujarat
26/==/JRSJoravasan (2)  18:15 18:16-18:17-2 1m1114.07915mWRJoravasan, Gujarat
27/==/BIMBilimora Junction (4)XO  18:23 18:20+1018:25+162 5m--117.91811mWRBilimora, Gujarat
28/==/AMLAmalsad (3)  18:44+918:46+112m--123.53812mWRAmalsad, Gujarat
29/==/ACLAncheli (2)  18:51 18:52-18:53-2 1m--127.33420mWRNavsari, Gujarat
30/==/VDHVedchha (3)X  18:59+1019:01+182m--130.72313mWRNavsari, Gujarat
31/==/NVSNavsari (3)X  19:23+619:25+72m3139.15114mWRNavsari, Gujarat
32/==/MRLMaroli (3)XO  19:35+819:37+102m--147.52515mWRMaroli, Gujarat
33/==/SCHSachin (3)X  19:52 19:53+319:54+42 1m1154.24311mWRKansad Road Sachin, Gujarat
34/==/BHETBhestan (2)  20:01 20:02+420:03+82 1m1159.92613mWRSurat, Gujarat
35/==/UDNUdhna Junction (3)XO  20:14+820:16+182m1164.7716mWRUdhna 394210, Gujarat
36/==/STSurat (4)XO  20:49+021:09+120m2168.73919mWRSurat 395001, Gujarat
37/==/URNUtran (3)  21:15+821:17+72m--172.66415mWRSurat, Gujarat
38/==/KSEKosad (2)  21:20+1021:22+92m--175.83717mWRSurat, Gujarat
39/==/GTXGothangam (2)XO  21:28+921:30 21:29+102 1m--179.41819mWRAmroli Sayan Rd, Gujarat
40/==/SYNSayan (3)  21:39+621:41 21:40+72 1m--182.45021mWRSayan Satellite town, Gujarat
41/==/KIMKim (2)  21:52+821:54 21:53+92 1m--192.35218mWRNH 8, Gujarat
42/==/KSBKosamba Junction (3)X  22:02+1022:04 22:03+102 1m--1100.13730mWRKosamba, Gujarat
43/==/HATHathuran (2)O  22:08 22:10-22:10 22:11-2 1m--1104.53932mWRKosamba, Gujarat
44/==/PAOPanoli (3)X  22:15 22:17+822:17 22:18+122 1m--1108.34429mWRPanoli, Gujarat
45/==/AKVAnkleshwar Junction (4)X  22:34 22:32+922:36 22:33+92 1m21118.64719mWRAnkleshwar, Gujarat
46/==/BHBharuch Junction (5)  22:50 22:45+1022:52 22:47+102m31128.05619mWRBharuch, Gujarat
47/==/NIUNabipur (3)X  23:03 23:00+1323:05 23:02+122m--1140.05124mWRNabipur, Gujarat
48/==/VREVarediya (4)X  23:12 23:10+1223:14 23:11+152 1m--1146.85721mWRNH 8, Gujarat
49/==/PLJPalej (4)O  23:20 23:18+1523:22 23:19+202 1m--1153.43829mWRPalej, Gujarat
50/==/MYGMiyagam Karjan (2)XO  23:43+1123:45+102m21168.76329mWRKarjan, Gujarat
51/==/ITAItola (4)X  23:56+1323:58+122m--1180.33027mWRNational Highway 8 Vadodara, Gujarat
52/==/BRCVadodara Junction (7)X  00:40 00:35+1300:50 00:45+1310m--2198.53136mWRVadodara 390005, Gujarat
53/==/BJWBajva (3)X  01:04 00:59+2501:06 01:01+242m--2205.82338mWRVadodara, Gujarat
54/==/RNORanoli (2)  01:16 01:11+2501:18 01:13+252m--2209.58339mWRVadodara District, Gujarat
55/==/NDRNandesari (2)  01:21 01:16-01:23 01:18-2m--2213.76042mWRNandesari, Gujarat
56/==/VDAVasad Junction (3)XO  01:28 01:23+2501:30 01:25+242m--2218.72540mWRVasad, Gujarat
57/==/ADDAdas Road (4)X  01:36+2001:38 01:37+202 1m--2223.33542mWRNational Highway 8, Gujarat
58/==/VXDVadod (3)  01:44+2001:46 01:45+202 1m--2227.43744mWRAnand District, Gujarat
59/==/ANNDAnand Junction (6)XO  02:03 01:56+1502:08 02:01+185m--2234.33444mWRAnand, Gujarat
60/--/KBRVKanjari Boriyavi Junction (4)X  02:14+1702:16 02:15+172 1m--2241.74139mWRKanjari, Gujarat
61/==/UTDUtarsanda (4)XO  02:23+1602:25 02:24+172 1m--2247.22240mWRUttarsanda, Gujarat
62/==/NDNadiad Junction (4)XO  02:35 02:39+702:43 02:44+108 5m--2252.74037mWRNadiad, Gujarat
63/==/GTEGothaj (2)X  02:52 02:58+702:54 02:59+82 1m--2261.95532mWRState Highway 3, Gujarat
64/==/MHDMahemdavad Kheda Road (4)X  03:12 03:08+703:14 03:09+72 1m--2270.35037mWRMahemdavad, Gujarat
65/==/NEPNenpur (2)X  03:19 03:14-03:21 03:16-2m--2274.42935mWRState Highway 3, Gujarat
66/==/KANJKanij (3)  03:26 03:22+503:28 03:23+62 1m--2277.32239mWRBareja-Barejadi Rd, Gujarat
67/==/BJDBarejadi Nandej (3)X  03:36 03:35+203:38 03:36+42 1m--2281.62242mWRBareja-Barejadi Rd, Gujarat
68/==/GERGeratpur (2)X  03:52 03:45+103:54 03:46+42 1m--2285.07944mWRAhmadabad, Gujarat
69/==/VTAVatva (4)X  03:58 03:50+1004:00 03:52+112m--2290.34849mWRDist. Ahmedabad 382445, Gujarat
70/==/MANManinagar (2)O  04:06 03:58+604:08 04:00+62m12295.1550mWRAhmadabad, Gujarat
71/==/ADIAhmedabad Junction (12)•  04:25 04:35+2-42298.3-51mWRAhmedabad, Gujarat
Scroll to Top
Scroll to Bottom


Go to Mobile site